This is the latest recevied weather packets stored in our database for station/object KC1OEK-13. If no packets are shown the sender has not sent any weather packets the latest 10 day(s).
| Time | Temp. | Humidity | Pressure | Rain* | Wind** | Luminosity | Snow |
|---|---|---|---|---|---|---|---|
| 1777758274 | 12.78° C | 53% | 1011.6 hPa | 0 mm | - | 94 W/m² | - |
| 1777757971 | 12.78° C | 54% | 1011.5 hPa | 0 mm | - | 105 W/m² | - |
| 1777757667 | 13.33° C | 53% | 1011.5 hPa | 0 mm | - | 110 W/m² | - |
| 1777757366 | 13.33° C | 53% | 1011.4 hPa | 0 mm | - | 129 W/m² | - |
| 1777757065 | 13.89° C | 52% | 1011.4 hPa | 0 mm | - | 106 W/m² | - |
| 1777756761 | 13.89° C | 51% | 1011.3 hPa | 0 mm | - | 104 W/m² | - |
| 1777756457 | 14.44° C | 49% | 1011.2 hPa | 0 mm | - | 159 W/m² | - |
| 1777756154 | 15.56° C | 47% | 1011.3 hPa | 0 mm | - | 170 W/m² | - |
| 1777755852 | 14.44° C | 49% | 1011.2 hPa | 0 mm | - | 409 W/m² | - |
| 1777755549 | 14.44° C | 49% | 1011.3 hPa | 0 mm | - | 118 W/m² | - |
| 1777755244 | 15° C | 49% | 1011.3 hPa | 0 mm | - | 128 W/m² | - |
| 1777754942 | 14.44° C | 48% | 1011.2 hPa | 0 mm | - | 438 W/m² | - |
| 1777754639 | 15° C | 49% | 1011.4 hPa | 0 mm | - | 172 W/m² | - |
| 1777754337 | 15° C | 49% | 1011.4 hPa | 0 mm | - | 560 W/m² | - |
| 1777754034 | 15° C | 47% | 1011.4 hPa | 0 mm | - | 419 W/m² | - |
| 1777753729 | 13.33° C | 53% | 1011.7 hPa | 0 mm | - | 197 W/m² | - |
| 1777753427 | 13.33° C | 51% | 1011.6 hPa | 0 mm | - | 179 W/m² | - |
| 1777753125 | 12.78° C | 51% | 1011.5 hPa | 0 mm | - | 328 W/m² | - |
| 1777752820 | 13.33° C | 52% | 1011.8 hPa | 0 mm | - | 159 W/m² | - |
| 1777752517 | 13.89° C | 51% | 1011.9 hPa | 0 mm | - | 187 W/m² | - |
| 1777752213 | 15° C | 49% | 1011.7 hPa | 0 mm | - | 575 W/m² | - |
| 1777751911 | 14.44° C | 47% | 1011.9 hPa | 0 mm | - | 639 W/m² | - |
| 1777751607 | 15° C | 48% | 1011.7 hPa | 0 mm | - | 532 W/m² | - |
| 1777751304 | 14.44° C | 51% | 1011.9 hPa | 0 mm | - | 630 W/m² | - |
| 1777751001 | 15° C | 49% | 1012.1 hPa | 0 mm | - | 377 W/m² | - |
* Rain latest hour (hover to see other rain measurements)
** Current wind speed in m/s (hover to see current wind gust speed)